Time;durP1;ratioP1;P1;durP2;ratioP2;P2;SDS_P1;SDS_P2;PMS_P1;PMS_P2;Temp;Humidity;BMP_temperature;BMP_pressure;BME280_temperature;BME280_humidity;BME280_pressure;Samples;Min_cycle;Max_cycle;Signal;HPM_P1;HPM_P2
2022/08/23 00:01:26;;;;;;;10.88;9.38;;;;;;;26.15;53.17;100443.56;5066702;28;20376;-62
2022/08/23 00:03:53;;;;;;;11.00;9.23;;;;;;;26.11;53.38;100428.91;5066683;28;20388;-61
2022/08/23 00:06:24;;;;;;;10.75;8.85;;;;;;;26.09;53.48;100429.19;5066880;28;20498;-61
2022/08/23 00:08:51;;;;;;;10.80;9.20;;;;;;;26.11;53.44;100431.63;5066721;28;20445;-61
2022/08/23 00:11:41;;;;;;;9.97;9.03;;;;;;;26.05;53.40;100417.25;5066507;28;20817;-61
2022/08/23 00:14:11;;;;;;;10.13;8.57;;;;;;;26.06;53.56;100426.22;5066525;28;20770;-61
2022/08/23 00:16:37;;;;;;;11.15;9.05;;;;;;;26.03;53.55;100421.34;5066686;28;20384;-61
2022/08/23 00:19:06;;;;;;;11.38;8.70;;;;;;;26.01;53.82;100421.63;5066921;28;20380;-61
2022/08/23 00:21:33;;;;;;;9.77;8.60;;;;;;;26.01;53.99;100420.81;5066644;28;20381;-61
2022/08/23 00:23:58;;;;;;;9.43;8.35;;;;;;;26.00;53.98;100422.72;5066305;28;20502;-61
2022/08/23 00:26:25;;;;;;;9.82;8.82;;;;;;;25.95;54.26;100414.59;5066442;28;20391;-62
2022/08/23 00:28:51;;;;;;;9.88;8.77;;;;;;;25.93;54.27;100419.50;5066128;28;20399;-61
2022/08/23 00:31:18;;;;;;;10.05;8.70;;;;;;;25.92;54.52;100415.13;5066757;28;20817;-62
2022/08/23 00:33:43;;;;;;;9.68;8.52;;;;;;;25.89;54.46;100419.22;5066357;28;20416;-61
2022/08/23 00:39:03;;;;;;;10.77;8.50;;;;;;;25.77;55.00;100418.75;5072777;27;2139850;-60
2022/08/23 00:41:29;;;;;;;11.23;8.73;;;;;;;25.74;55.19;100430.94;5127871;28;20823;-61
2022/08/23 00:49:33;;;;;;;10.55;8.38;;;;;;;25.60;55.62;100434.56;5127963;28;20389;-61
2022/08/23 00:52:06;;;;;;;9.15;8.18;;;;;;;25.60;55.82;100439.97;5127886;28;20407;-61
2022/08/23 00:54:33;;;;;;;11.55;8.50;;;;;;;25.59;55.63;100430.19;5127814;28;20413;-61
2022/08/23 00:57:04;;;;;;;11.07;8.30;;;;;;;25.60;55.59;100432.63;5127458;28;20414;-62
2022/08/23 00:59:31;;;;;;;11.32;8.50;;;;;;;25.56;55.75;100435.09;5127447;28;20440;-61
2022/08/23 01:01:59;;;;;;;9.75;8.73;;;;;;;25.56;55.86;100437.81;5127553;28;20440;-62
2022/08/23 01:04:30;;;;;;;9.30;8.23;;;;;;;25.53;55.63;100448.41;5127647;28;20378;-61
2022/08/23 01:07:06;;;;;;;9.73;8.60;;;;;;;25.51;55.65;100451.41;5127643;28;20375;-62
2022/08/23 01:09:32;;;;;;;12.85;8.90;;;;;;;25.48;55.84;100459.28;5127627;28;20485;-61
2022/08/23 01:12:15;;;;;;;11.27;8.77;;;;;;;25.48;56.03;100464.69;5127507;28;20378;-61
2022/08/23 01:14:48;;;;;;;11.25;8.95;;;;;;;25.45;56.02;100457.94;5127444;28;20371;-61
2022/08/23 01:17:24;;;;;;;11.35;8.50;;;;;;;25.44;56.17;100461.72;5108898;28;20409;-61
2022/08/23 01:19:56;;;;;;;10.20;8.55;;;;;;;25.45;56.26;100470.69;5127216;28;20405;-61
2022/08/23 01:22:37;;;;;;;9.45;8.25;;;;;;;25.40;56.39;100462.56;5127333;28;20749;-61
2022/08/23 01:25:07;;;;;;;9.43;8.38;;;;;;;25.37;56.19;100472.06;5127316;28;20496;-61
2022/08/23 01:29:21;;;;;;;11.25;8.48;;;;;;;25.35;56.51;100469.66;5066084;28;20481;-61
2022/08/23 01:31:46;;;;;;;10.20;8.80;;;;;;;25.34;56.50;100475.34;5067061;28;20894;-62
2022/08/23 01:34:15;;;;;;;12.90;8.40;;;;;;;25.35;56.66;100476.94;5067376;28;20407;-61
2022/08/23 01:36:42;;;;;;;11.85;8.45;;;;;;;25.38;56.34;100477.22;5065172;28;20407;-62
2022/08/23 01:40:31;;;;;;;10.55;8.38;;;;;;;25.41;56.62;100491.31;5047410;28;20413;-61
2022/08/23 01:42:57;;;;;;;10.77;8.13;;;;;;;25.40;56.86;100495.13;5046869;28;20459;-60
2022/08/23 01:45:22;;;;;;;9.40;8.40;;;;;;;25.40;56.54;100484.28;5047067;28;20795;-61
2022/08/23 01:47:48;;;;;;;10.70;8.38;;;;;;;25.39;56.58;100494.31;5046796;28;20381;-61
2022/08/23 01:50:13;;;;;;;9.35;8.23;;;;;;;25.38;56.82;100487.25;5046744;28;20773;-61
2022/08/23 01:52:40;;;;;;;10.70;8.40;;;;;;;25.34;56.62;100491.63;5046895;28;20385;-61
2022/08/23 01:55:06;;;;;;;9.95;8.18;;;;;;;25.38;56.39;100493.50;5046858;28;20879;-61
2022/08/23 01:57:33;;;;;;;8.98;7.90;;;;;;;25.42;56.68;100498.38;5046601;28;20780;-60
2022/08/23 01:59:59;;;;;;;9.68;8.18;;;;;;;25.43;56.67;100506.25;5046774;28;20445;-61
2022/08/23 02:02:24;;;;;;;10.20;8.13;;;;;;;25.37;56.83;100504.63;5047095;28;20421;-61
2022/08/23 02:04:51;;;;;;;9.85;8.10;;;;;;;25.27;56.81;100494.59;5046734;28;20751;-61
2022/08/23 02:07:17;;;;;;;9.50;8.18;;;;;;;25.28;57.00;100492.69;5046625;28;20386;-61
2022/08/23 02:10:19;;;;;;;10.73;8.18;;;;;;;25.32;56.98;100501.94;5066139;28;20462;-60
2022/08/23 02:12:46;;;;;;;10.00;8.48;;;;;;;25.30;56.87;100494.06;5066787;28;20821;-61
2022/08/23 02:15:13;;;;;;;8.75;7.82;;;;;;;25.33;56.92;100500.84;5067037;28;20384;-62
2022/08/23 02:17:39;;;;;;;11.43;8.23;;;;;;;25.32;57.12;100496.50;5067085;28;20376;-61
2022/08/23 02:20:05;;;;;;;8.88;7.93;;;;;;;25.31;57.08;100501.09;5067286;28;20378;-62
2022/08/23 02:22:32;;;;;;;9.95;7.85;;;;;;;25.30;57.05;100493.22;5066944;28;20971;-60
2022/08/23 02:24:58;;;;;;;10.95;8.35;;;;;;;25.28;57.11;100487.28;5066708;28;20387;-61
2022/08/23 02:27:25;;;;;;;9.35;7.80;;;;;;;25.27;57.11;100488.38;5066497;28;20749;-61
2022/08/23 02:29:51;;;;;;;10.10;8.20;;;;;;;25.23;57.30;100481.81;5066842;28;20434;-62
2022/08/23 02:32:17;;;;;;;11.27;8.52;;;;;;;25.21;57.29;100484.00;5066734;28;20383;-61
2022/08/23 02:34:46;;;;;;;9.40;8.13;;;;;;;25.21;57.37;100482.13;5066379;28;20403;-60
2022/08/23 02:37:13;;;;;;;11.55;8.75;;;;;;;25.16;57.49;100488.34;5066596;28;20383;-61
2022/08/23 02:39:39;;;;;;;12.18;8.35;;;;;;;25.18;57.28;100488.09;5066182;28;20392;-61
2022/08/23 02:42:06;;;;;;;10.68;8.45;;;;;;;25.17;57.37;100491.88;5066218;28;20372;-61
2022/08/23 02:44:33;;;;;;;9.43;8.43;;;;;;;25.17;57.32;100484.56;5066535;28;20388;-60
2022/08/23 02:47:00;;;;;;;9.75;8.25;;;;;;;25.16;57.46;100488.34;5066344;28;20376;-60
2022/08/23 02:49:26;;;;;;;9.93;8.23;;;;;;;25.12;57.46;100497.28;5066236;28;20759;-60
2022/08/23 02:51:52;;;;;;;10.67;8.33;;;;;;;25.08;57.63;100493.50;5065967;28;20470;-60
2022/08/23 02:54:18;;;;;;;10.20;8.32;;;;;;;24.89;58.14;100491.34;5066111;28;20466;-60
2022/08/23 02:56:43;;;;;;;9.73;8.20;;;;;;;24.71;58.54;100502.75;5065938;28;20380;-60
2022/08/23 02:59:09;;;;;;;9.38;8.45;;;;;;;24.60;58.96;100488.34;5066161;28;20391;-60
2022/08/23 03:01:38;;;;;;;9.57;8.53;;;;;;;24.57;59.20;100489.69;5065853;28;20414;-61
2022/08/23 03:04:06;;;;;;;12.40;8.80;;;;;;;24.54;59.45;100487.53;5065913;28;20441;-60
2022/08/23 03:06:33;;;;;;;11.75;8.75;;;;;;;24.59;59.23;100497.56;5066393;28;20414;-60
2022/08/23 03:08:59;;;;;;;12.52;9.20;;;;;;;24.59;59.18;100489.44;5074985;28;20458;-61
2022/08/23 03:11:25;;;;;;;9.77;8.57;;;;;;;24.55;59.39;100491.84;5086197;28;20382;-60
2022/08/23 03:13:52;;;;;;;8.63;7.70;;;;;;;24.54;59.28;100487.53;5086082;28;20764;-60
2022/08/23 03:16:18;;;;;;;10.20;8.25;;;;;;;24.58;59.23;100496.75;5086027;28;20388;-60
2022/08/23 03:18:45;;;;;;;10.02;7.63;;;;;;;24.53;59.03;100496.75;5086073;28;20428;-61
2022/08/23 03:21:11;;;;;;;8.25;7.28;;;;;;;24.45;58.99;100480.97;5075366;28;20379;-60
2022/08/23 03:23:38;;;;;;;8.77;6.93;;;;;;;24.34;59.07;100477.41;5072513;28;20393;-61
2022/08/23 03:26:06;;;;;;;9.77;7.27;;;;;;;24.35;59.28;100494.50;5072171;28;20421;-61
2022/08/23 03:28:34;;;;;;;8.03;7.10;;;;;;;24.42;59.13;100492.38;5072072;28;20800;-60
2022/08/23 03:30:59;;;;;;;10.77;7.80;;;;;;;24.41;58.88;100496.94;5054048;28;20911;-60
2022/08/23 03:33:25;;;;;;;9.95;7.18;;;;;;;24.50;58.76;100502.66;5072315;28;20367;-60
2022/08/23 03:35:50;;;;;;;11.23;8.63;;;;;;;24.60;58.51;100515.47;5072301;28;20906;-60
2022/08/23 03:38:17;;;;;;;9.47;7.60;;;;;;;24.57;58.77;100516.78;5071655;28;20390;-60
2022/08/23 03:40:43;;;;;;;11.20;8.23;;;;;;;24.64;58.60;100529.28;5072140;28;20379;-60
2022/08/23 03:43:09;;;;;;;9.10;7.40;;;;;;;24.68;58.51;100523.03;5072125;28;20470;-61
2022/08/23 03:45:35;;;;;;;10.80;8.00;;;;;;;24.72;58.41;100543.13;5072092;28;20965;-60
2022/08/23 03:48:00;;;;;;;11.73;7.60;;;;;;;24.74;58.41;100570.78;5072010;28;20379;-60
2022/08/23 03:50:26;;;;;;;10.43;8.90;;;;;;;24.76;58.54;100574.03;5072057;28;20383;-60
2022/08/23 03:52:52;;;;;;;9.93;8.93;;;;;;;24.79;58.57;100567.25;5071989;28;20375;-60
2022/08/23 03:55:18;;;;;;;11.07;9.13;;;;;;;24.82;58.27;100577.56;5071911;28;20379;-60
2022/08/23 03:57:44;;;;;;;9.32;8.02;;;;;;;24.83;58.13;100570.22;5071785;28;20379;-60
2022/08/23 04:00:12;;;;;;;14.15;8.20;;;;;;;24.77;58.25;100567.50;5052076;28;20476;-61
2022/08/23 04:02:38;;;;;;;9.50;7.90;;;;;;;24.87;58.20;100566.72;5046215;28;20409;-61
2022/08/23 04:05:07;;;;;;;12.82;8.77;;;;;;;24.85;58.02;100568.91;5049151;28;20381;-60
2022/08/23 04:07:34;;;;;;;8.88;7.03;;;;;;;24.79;57.93;100575.38;5049820;28;20414;-61
2022/08/23 04:09:59;;;;;;;7.43;6.72;;;;;;;24.72;58.15;100569.41;5030144;28;20475;-60
2022/08/23 04:12:25;;;;;;;11.20;7.60;;;;;;;24.77;58.13;100566.72;5051259;28;20380;-60
2022/08/23 04:14:52;;;;;;;9.00;6.80;;;;;;;24.79;58.04;100581.63;5049055;28;20381;-60
2022/08/23 04:17:19;;;;;;;11.80;7.00;;;;;;;24.69;57.83;100584.31;5044397;28;20898;-60
2022/08/23 04:19:46;;;;;;;7.73;6.70;;;;;;;24.69;58.15;100587.03;5051491;28;20449;-60
2022/08/23 04:22:14;;;;;;;11.63;8.23;;;;;;;24.79;58.14;100587.06;5051242;28;20431;-60
2022/08/23 04:24:41;;;;;;;9.30;7.38;;;;;;;24.73;57.96;100571.84;5051059;28;20740;-60
2022/08/23 04:27:16;;;;;;;9.60;6.53;;;;;;;24.64;58.14;100570.75;5066156;28;20465;-60
2022/08/23 04:29:41;;;;;;;10.13;7.00;;;;;;;24.58;58.36;100569.94;5067271;28;20387;-60
2022/08/23 04:32:10;;;;;;;9.17;7.10;;;;;;;24.46;58.54;100582.84;5067041;28;20382;-61
2022/08/23 04:34:38;;;;;;;7.60;6.78;;;;;;;24.40;58.92;100589.34;5066899;28;20372;-62
2022/08/23 04:37:05;;;;;;;9.95;6.95;;;;;;;24.31;59.30;100599.03;5066614;28;20466;-61
2022/08/23 04:42:16;;;;;;;8.80;6.78;;;;;;;24.35;59.34;100597.47;5066552;28;20376;-60
2022/08/23 04:42:18;;;;;;;11.02;7.97;;;;;;;24.46;59.43;100614.56;5066413;28;20395;-61
2022/08/23 04:44:44;;;;;;;8.43;7.18;;;;;;;24.48;59.39;100628.66;5051610;28;20378;-61
2022/08/23 04:47:10;;;;;;;14.20;8.13;;;;;;;24.58;60.87;100636.88;5046057;28;20827;-61
2022/08/23 04:49:35;;;;;;;17.48;9.45;;;;;;;24.52;61.78;100643.31;5046413;28;20887;-61
2022/08/23 04:52:01;;;;;;;18.20;9.63;;;;;;;24.51;62.61;100660.66;5046615;28;20378;-63
2022/08/23 04:54:28;;;;;;;19.83;10.63;;;;;;;24.42;62.81;100654.94;5046750;28;20390;-60
2022/08/23 04:56:53;;;;;;;19.40;9.82;;;;;;;24.27;63.48;100661.06;5046379;28;20377;-60
2022/08/23 04:59:19;;;;;;;13.73;8.00;;;;;;;24.14;63.52;100658.84;5046654;28;20377;-61
2022/08/23 05:01:45;;;;;;;10.45;6.95;;;;;;;24.11;62.66;100652.06;5046039;28;20409;-62
2022/08/23 05:04:12;;;;;;;14.17;8.43;;;;;;;24.19;63.50;100642.63;5046226;28;20823;-62
2022/08/23 05:08:51;;;;;;;14.15;7.72;;;;;;;24.18;62.49;100624.72;5066068;28;20408;-62
2022/08/23 05:11:17;;;;;;;10.03;7.30;;;;;;;24.19;62.91;100639.91;5065870;28;20825;-62
2022/08/23 05:13:43;;;;;;;10.98;6.10;;;;;;;24.17;62.55;100626.63;5063289;28;20394;-60
2022/08/23 05:16:09;;;;;;;8.83;5.80;;;;;;;24.15;62.14;100623.38;5045269;28;20393;-61
2022/08/23 05:18:35;;;;;;;12.00;5.32;;;;;;;23.91;61.79;100620.22;5046277;28;20930;-61
2022/08/23 05:21:01;;;;;;;7.80;6.47;;;;;;;23.93;62.42;100623.53;5046287;28;20487;-62
2022/08/23 05:23:27;;;;;;;9.55;6.15;;;;;;;23.91;62.28;100622.13;5046071;28;20487;-62
2022/08/23 05:25:53;;;;;;;9.55;6.00;;;;;;;23.88;62.17;100622.66;5045949;28;20392;-61
2022/08/23 05:28:25;;;;;;;7.00;5.07;;;;;;;23.84;61.67;100616.94;5046453;28;20405;-61
2022/08/23 05:30:59;;;;;;;8.70;5.23;;;;;;;23.80;61.67;100619.34;5046316;28;20423;-61
2022/08/23 05:33:25;;;;;;;6.55;4.50;;;;;;;23.83;61.97;100634.28;5046339;28;20390;-61
2022/08/23 05:35:51;;;;;;;7.85;4.50;;;;;;;23.90;61.80;100634.06;5045576;28;20393;-61
2022/08/23 05:38:17;;;;;;;8.20;4.57;;;;;;;23.90;61.75;100624.03;5045790;28;20428;-61
2022/08/23 05:40:43;;;;;;;7.97;4.83;;;;;;;24.13;61.65;100619.28;5046246;28;20795;-61
2022/08/23 05:43:09;;;;;;;4.80;3.95;;;;;;;24.49;60.55;100624.84;5045209;28;20400;-61
2022/08/23 05:45:35;;;;;;;7.13;4.38;;;;;;;24.76;59.87;100620.13;5044120;28;20400;-63
2022/08/23 05:48:00;;;;;;;6.43;4.40;;;;;;;24.96;59.46;100618.53;5044002;28;20788;-61
2022/08/23 05:50:26;;;;;;;6.78;4.45;;;;;;;24.94;59.65;100610.66;5042997;28;20402;-61
2022/08/23 05:52:51;;;;;;;6.10;3.63;;;;;;;24.75;59.94;100615.75;5044853;28;20388;-62
2022/08/23 05:55:17;;;;;;;6.10;3.60;;;;;;;24.45;60.94;100624.56;5045229;28;20419;-61
2022/08/23 05:57:43;;;;;;;7.22;3.80;;;;;;;24.27;61.30;100617.72;5044871;28;20393;-61
2022/08/23 06:00:14;;;;;;;7.63;3.90;;;;;;;24.40;61.43;100617.25;5045231;28;20451;-61
2022/08/23 06:02:40;;;;;;;9.02;4.78;;;;;;;24.60;61.37;100615.75;5044669;28;20780;-62
2022/08/23 06:05:07;;;;;;;9.27;4.80;;;;;;;24.89;61.25;100618.78;5059776;28;20412;-61
2022/08/23 06:07:33;;;;;;;8.80;5.07;;;;;;;25.13;60.69;100618.28;5044857;28;20491;-62
2022/08/23 06:09:59;;;;;;;8.32;5.05;;;;;;;25.17;60.22;100622.06;5043291;28;21029;-60
2022/08/23 06:12:25;;;;;;;7.97;5.57;;;;;;;25.16;60.73;100634.84;5044274;28;20975;-62
2022/08/23 06:14:51;;;;;;;10.30;4.47;;;;;;;25.27;61.21;100638.41;5045672;28;20476;-61
2022/08/23 06:17:16;;;;;;;8.52;4.70;;;;;;;25.52;60.52;100653.88;5045399;28;20409;-61
2022/08/23 06:19:42;;;;;;;5.90;4.90;;;;;;;25.89;59.50;100654.66;5035065;28;20427;-61
2022/08/23 06:22:08;;;;;;;10.87;5.70;;;;;;;26.04;59.43;100656.59;5031775;28;20398;-61
2022/08/23 06:24:34;;;;;;;7.03;5.30;;;;;;;26.00;59.54;100671.78;5031912;28;20394;-61
2022/08/23 06:26:59;;;;;;;8.75;5.88;;;;;;;25.85;59.44;100683.44;5031869;28;20418;-61
2022/08/23 06:29:25;;;;;;;7.82;5.88;;;;;;;25.81;59.83;100685.91;5031814;28;20803;-61
2022/08/23 06:31:52;;;;;;;6.40;5.73;;;;;;;25.65;59.27;100693.22;5031847;28;20394;-61
2022/08/23 06:34:20;;;;;;;7.40;5.95;;;;;;;25.56;59.50;100692.94;5032136;28;20513;-61
2022/08/23 06:36:48;;;;;;;7.95;6.13;;;;;;;25.60;58.91;100693.22;5031770;28;20403;-61
2022/08/23 06:39:16;;;;;;;10.32;6.95;;;;;;;25.86;58.46;100688.63;5030436;28;20398;-62
2022/08/23 06:41:44;;;;;;;8.93;6.57;;;;;;;26.18;57.59;100681.25;5030162;28;20409;-62
2022/08/23 06:44:11;;;;;;;8.40;6.70;;;;;;;26.41;57.05;100686.06;5030836;28;20418;-61
2022/08/23 06:46:37;;;;;;;10.15;6.45;;;;;;;26.85;55.57;100687.31;5031696;28;20398;-61
2022/08/23 06:49:04;;;;;;;9.40;6.60;;;;;;;27.45;54.34;100685.31;5031851;28;20923;-61
2022/08/23 06:51:39;;;;;;;10.50;6.27;;;;;;;27.38;54.50;100678.56;5031392;28;20410;-62
2022/08/23 06:54:07;;;;;;;9.00;6.50;;;;;;;27.45;55.16;100688.03;5031123;28;20549;-61
2022/08/23 06:56:34;;;;;;;8.20;6.82;;;;;;;27.67;54.57;100681.31;5031330;28;20402;-62
2022/08/23 06:59:03;;;;;;;10.27;6.72;;;;;;;27.82;53.87;100683.09;5031157;28;20973;-61
2022/08/23 07:01:44;;;;;;;8.17;6.70;;;;;;;28.60;51.93;100679.31;5029975;28;20484;-61
2022/08/23 07:04:11;;;;;;;8.98;6.10;;;;;;;28.59;51.50;100677.72;5030834;28;20398;-61
2022/08/23 07:06:37;;;;;;;10.40;6.78;;;;;;;29.01;51.13;100674.41;5030347;28;20854;-62
2022/08/23 07:09:04;;;;;;;6.80;5.72;;;;;;;29.47;49.32;100679.19;5028986;28;20494;-62
2022/08/23 07:11:31;;;;;;;6.93;5.43;;;;;;;28.76;50.19;100685.38;5031650;28;20395;-61
2022/08/23 07:13:59;;;;;;;11.63;6.10;;;;;;;28.43;51.48;100692.56;5030952;28;20463;-61
2022/08/23 07:16:35;;;;;;;6.50;5.68;;;;;;;28.11;52.92;100702.19;5031005;28;20401;-62
2022/08/23 07:19:02;;;;;;;11.27;6.50;;;;;;;27.84;53.15;100698.06;5030533;28;20394;-62
2022/08/23 07:21:28;;;;;;;8.40;6.35;;;;;;;27.80;53.35;100707.91;5031662;28;20896;-61
2022/08/23 07:23:54;;;;;;;11.88;6.78;;;;;;;27.57;53.68;100706.75;5031335;28;20382;-62
2022/08/23 07:26:20;;;;;;;10.93;6.95;;;;;;;27.48;54.66;100691.28;5031308;28;20385;-61
2022/08/23 07:28:46;;;;;;;8.27;6.78;;;;;;;27.48;54.65;100699.44;5030939;28;20860;-61
2022/08/23 07:31:20;;;;;;;8.30;6.50;;;;;;;27.31;54.77;100700.66;5030067;28;20896;-62
2022/08/23 07:33:46;;;;;;;8.53;6.60;;;;;;;27.15;54.76;100701.81;5031260;28;20378;-61
2022/08/23 07:36:15;;;;;;;7.30;6.18;;;;;;;27.06;55.09;100704.31;5031068;28;20397;-62
2022/08/23 07:38:43;;;;;;;7.75;6.93;;;;;;;26.97;55.26;100697.84;5030867;28;20950;-61
2022/08/23 07:41:08;;;;;;;8.47;6.80;;;;;;;26.97;54.95;100698.66;5031071;28;20386;-62
2022/08/23 07:43:34;;;;;;;9.38;7.43;;;;;;;26.94;55.35;100712.00;5031063;28;20385;-62
2022/08/23 07:46:02;;;;;;;12.18;7.05;;;;;;;26.80;55.53;100726.22;5038659;28;20475;-62
2022/08/23 07:48:28;;;;;;;11.90;7.63;;;;;;;26.76;55.48;100727.03;5050672;28;20413;-61
2022/08/23 07:51:01;;;;;;;11.60;7.63;;;;;;;26.75;56.11;100731.66;5050424;28;20806;-61
2022/08/23 07:53:28;;;;;;;9.82;7.47;;;;;;;26.72;55.87;100731.41;5050515;28;20887;-61
2022/08/23 07:55:54;;;;;;;13.63;7.55;;;;;;;26.67;56.11;100727.63;5048927;28;20409;-63
2022/08/23 07:58:21;;;;;;;12.77;7.32;;;;;;;26.61;55.80;100742.31;5049636;28;20899;-63
2022/08/23 08:00:47;;;;;;;10.25;7.50;;;;;;;26.48;56.05;100729.28;5031032;28;20401;-61
2022/08/23 08:03:15;;;;;;;11.23;7.10;;;;;;;26.39;56.60;100737.19;5030783;28;20383;-61
2022/08/23 08:05:40;;;;;;;11.30;8.23;;;;;;;26.25;56.71;100734.25;5030485;28;20398;-62
2022/08/23 08:08:07;;;;;;;9.80;6.90;;;;;;;26.21;56.56;100745.91;5030428;28;20426;-62
2022/08/23 08:10:39;;;;;;;10.00;7.35;;;;;;;26.11;56.79;100744.84;5030303;28;20383;-61
2022/08/23 08:13:05;;;;;;;9.60;6.90;;;;;;;26.07;57.33;100743.78;5045764;28;20384;-61
2022/08/23 08:15:31;;;;;;;14.02;8.10;;;;;;;25.96;58.93;100739.41;5034102;28;20394;-62
2022/08/23 08:17:57;;;;;;;13.95;7.60;;;;;;;25.90;59.02;100730.44;5029397;28;20398;-62
2022/08/23 08:20:23;;;;;;;10.40;7.30;;;;;;;25.71;59.25;100735.59;5030097;28;20441;-61
2022/08/23 08:22:49;;;;;;;12.43;7.80;;;;;;;25.42;59.97;100742.63;5030180;28;20401;-61
2022/08/23 08:25:15;;;;;;;11.85;8.02;;;;;;;25.23;60.49;100743.09;5030192;28;20389;-61
2022/08/23 08:27:41;;;;;;;10.33;8.17;;;;;;;25.04;60.78;100741.94;5030151;28;20942;-61
2022/08/23 08:30:09;;;;;;;11.80;8.13;;;;;;;24.87;61.28;100745.69;5029910;28;20378;-63
2022/08/23 08:32:35;;;;;;;14.10;8.73;;;;;;;24.67;61.57;100746.41;5030170;28;20385;-61
2022/08/23 08:35:01;;;;;;;11.07;8.68;;;;;;;24.70;61.70;100751.28;5030122;28;20978;-61
2022/08/23 08:37:27;;;;;;;13.05;8.52;;;;;;;24.74;61.61;100762.41;5029925;28;20401;-61
2022/08/23 08:39:53;;;;;;;14.05;8.00;;;;;;;24.66;61.82;100758.31;5029873;28;20548;-62
2022/08/23 08:43:04;;;;;;;12.00;8.32;;;;;;;24.59;62.04;100760.44;5029810;28;20386;-60
2022/08/23 08:45:44;;;;;;;12.05;8.20;;;;;;;24.55;62.32;100776.41;4988103;28;20405;-61
2022/08/23 08:48:14;;;;;;;10.60;7.43;;;;;;;24.38;62.56;100767.59;5023638;28;20426;-61
2022/08/23 08:50:53;;;;;;;11.50;7.72;;;;;;;24.36;62.72;100770.59;5029870;28;20398;-61
2022/08/23 08:53:24;;;;;;;10.77;7.18;;;;;;;24.41;62.59;100773.31;5010164;28;20519;-61
2022/08/23 08:55:54;;;;;;;10.93;7.82;;;;;;;24.45;62.78;100761.94;5010141;28;20415;-61
2022/08/23 08:58:29;;;;;;;11.18;8.77;;;;;;;24.47;63.01;100760.63;5010407;28;20388;-61
2022/08/23 09:00:57;;;;;;;14.98;9.50;;;;;;;24.54;63.58;100763.13;5009946;28;20770;-61
2022/08/23 09:03:27;;;;;;;14.10;9.67;;;;;;;24.50;63.65;100757.38;5010215;28;20391;-61
2022/08/23 09:06:10;;;;;;;14.60;9.82;;;;;;;24.47;63.73;100760.63;5009810;28;20388;-61
2022/08/23 09:08:51;;;;;;;14.05;9.68;;;;;;;24.51;63.85;100758.22;5007555;28;20501;-61
2022/08/23 09:11:34;;;;;;;11.70;9.35;;;;;;;24.48;63.75;100762.25;5012253;28;20416;-61
2022/08/23 09:14:19;;;;;;;11.63;8.93;;;;;;;24.50;63.69;100762.00;5027720;28;20468;-62
2022/08/23 09:16:56;;;;;;;12.07;8.18;;;;;;;24.50;63.49;100760.09;5024381;28;20900;-63
2022/08/23 09:19:24;;;;;;;10.80;7.40;;;;;;;24.52;63.02;100762.53;5028440;28;20398;-61
2022/08/23 09:22:00;;;;;;;11.05;7.45;;;;;;;24.52;63.25;100766.06;5028648;28;20406;-61
2022/08/23 09:24:27;;;;;;;13.52;7.97;;;;;;;24.51;63.56;100767.16;5029003;28;20397;-63
2022/08/23 09:26:53;;;;;;;10.73;8.00;;;;;;;24.52;63.66;100762.53;5029120;28;20501;-61
2022/08/23 09:31:09;;;;;;;10.25;7.20;;;;;;;24.54;63.28;100766.66;5048901;28;20406;-61
2022/08/23 09:33:41;;;;;;;10.50;7.23;;;;;;;24.54;63.34;100758.53;5042481;28;20553;-61
2022/08/23 09:36:13;;;;;;;9.80;6.80;;;;;;;24.52;62.97;100757.13;5045479;28;20501;-62
2022/08/23 09:38:50;;;;;;;9.63;6.57;;;;;;;24.48;62.88;100759.53;5030814;28;20487;-61
2022/08/23 09:41:19;;;;;;;8.95;6.72;;;;;;;24.43;62.52;100752.22;5030914;28;20385;-61
2022/08/23 09:43:48;;;;;;;10.20;6.70;;;;;;;24.42;62.43;100752.47;5032702;28;20775;-61
2022/08/23 09:46:24;;;;;;;10.57;6.55;;;;;;;24.40;62.05;100751.91;5035812;28;20395;-61
2022/08/23 09:48:53;;;;;;;6.60;5.47;;;;;;;24.46;61.69;100744.63;5019634;28;20382;-61
2022/08/23 09:51:46;;;;;;;8.57;5.43;;;;;;;24.49;61.53;100750.34;5044564;28;20397;-61
2022/08/23 09:54:34;;;;;;;6.72;5.10;;;;;;;24.49;61.68;100747.63;5029900;28;20916;-62
2022/08/23 09:57:08;;;;;;;7.18;5.18;;;;;;;24.52;61.59;100754.41;5039839;28;20393;-61
2022/08/23 09:59:38;;;;;;;6.60;5.00;;;;;;;24.47;61.03;100749.78;5037267;28;20389;-62
2022/08/23 10:02:05;;;;;;;7.07;4.95;;;;;;;24.47;60.99;100747.09;5040335;28;20806;-61
2022/08/23 10:04:36;;;;;;;8.50;5.50;;;;;;;24.52;61.14;100752.50;5028858;28;20466;-61
2022/08/23 10:07:26;;;;;;;6.20;4.80;;;;;;;24.56;60.88;100744.69;5034659;28;20405;-60
2022/08/23 10:09:53;;;;;;;9.65;4.85;;;;;;;24.57;60.51;100741.72;5031606;28;20431;-61
2022/08/23 10:12:18;;;;;;;6.90;4.60;;;;;;;24.67;60.57;100754.53;5027134;28;20439;-61
2022/08/23 10:14:44;;;;;;;7.53;5.27;;;;;;;24.73;60.54;100736.41;5038536;28;20489;-61
2022/08/23 10:17:39;;;;;;;6.70;4.60;;;;;;;24.83;60.56;100747.28;5033406;28;20404;-61
2022/08/23 10:20:34;;;;;;;6.80;4.77;;;;;;;24.88;60.04;100752.72;5030107;28;20893;-61
2022/08/23 10:23:39;;;;;;;7.38;4.63;;;;;;;24.92;59.94;100750.28;5029030;28;20409;-62
2022/08/23 10:26:09;;;;;;;5.68;4.78;;;;;;;25.02;59.92;100747.63;5018590;28;20439;-63
2022/08/23 10:31:46;;;;;;;5.00;4.50;;;;;;;25.33;59.14;100755.88;5031200;28;20421;-61
2022/08/23 10:34:21;;;;;;;6.70;4.90;;;;;;;25.31;59.20;100777.84;5037339;28;20398;-61
2022/08/23 10:36:59;;;;;;;4.90;4.30;;;;;;;25.28;59.26;100772.16;5027089;28;20419;-63
2022/08/23 10:39:29;;;;;;;5.93;4.20;;;;;;;25.28;58.84;100781.13;5036097;28;20405;-61
2022/08/23 10:42:32;;;;;;;4.72;4.10;;;;;;;25.29;58.52;100790.88;5020879;28;20430;-61
2022/08/23 10:45:24;;;;;;;6.10;4.57;;;;;;;25.24;59.04;100790.84;5006741;28;20406;-61
2022/08/23 10:48:20;;;;;;;4.85;4.10;;;;;;;25.19;58.74;100809.78;5018824;28;20445;-62
2022/08/23 10:50:59;;;;;;;6.63;4.13;;;;;;;25.18;58.66;100822.56;5016370;28;20418;-62
2022/08/23 10:53:55;;;;;;;4.82;3.65;;;;;;;25.09;58.73;100823.34;5021779;28;20396;-61
2022/08/23 10:56:23;;;;;;;4.27;3.40;;;;;;;25.00;58.42;100833.88;5028470;28;20445;-61
2022/08/23 10:59:29;;;;;;;4.25;3.50;;;;;;;24.90;58.71;100837.34;5028513;28;20481;-61
2022/08/23 11:01:57;;;;;;;4.43;4.03;;;;;;;24.94;58.53;100827.59;4999100;28;20533;-61
2022/08/23 11:04:49;;;;;;;4.50;3.88;;;;;;;24.94;58.60;100833.03;5003034;28;20442;-61
2022/08/23 11:07:22;;;;;;;6.45;4.38;;;;;;;24.91;59.03;100830.03;5001107;28;20402;-62
2022/08/23 11:10:07;;;;;;;5.90;4.00;;;;;;;25.09;58.34;100821.44;5018672;28;20415;-61
2022/08/23 11:12:48;;;;;;;5.20;4.43;;;;;;;25.31;58.53;100813.13;5027488;28;20421;-61
2022/08/23 11:15:23;;;;;;;4.87;4.37;;;;;;;25.52;57.79;100810.50;5013659;28;20407;-61
2022/08/23 11:17:48;;;;;;;5.05;4.45;;;;;;;25.72;57.75;100807.00;5013698;28;20404;-62
2022/08/23 11:20:48;;;;;;;5.00;4.50;;;;;;;25.79;57.28;100815.69;5027649;28;20581;-62
2022/08/23 11:23:29;;;;;;;5.80;5.20;;;;;;;25.55;57.92;100815.38;5040183;28;20398;-61
2022/08/23 11:25:54;;;;;;;6.80;6.00;;;;;;;25.52;57.60;100811.31;5023424;28;20402;-60
2022/08/23 11:28:26;;;;;;;7.57;6.57;;;;;;;25.70;58.08;100818.13;5028644;28;20397;-61
2022/08/23 11:30:55;;;;;;;8.98;6.95;;;;;;;25.96;57.73;100817.38;5003212;28;20796;-60
2022/08/23 11:33:30;;;;;;;7.15;5.68;;;;;;;25.97;57.34;100822.53;5029247;28;20394;-61
2022/08/23 11:36:07;;;;;;;5.50;5.00;;;;;;;25.70;56.93;100818.13;5030810;28;20405;-61
2022/08/23 11:38:42;;;;;;;6.45;5.15;;;;;;;25.90;56.56;100814.63;5014655;28;20404;-61
2022/08/23 11:41:19;;;;;;;6.40;5.57;;;;;;;25.98;57.08;100831.50;5023871;28;20424;-61
2022/08/23 11:44:09;;;;;;;7.38;6.32;;;;;;;25.86;56.81;100824.41;5023057;28;20496;-61
2022/08/23 11:46:47;;;;;;;6.95;5.25;;;;;;;25.83;56.57;100819.50;5018051;28;20437;-61
2022/08/23 11:49:15;;;;;;;6.57;4.63;;;;;;;25.89;55.93;100820.31;5019240;28;20497;-60
2022/08/23 11:51:49;;;;;;;6.35;5.18;;;;;;;26.09;56.11;100827.69;5019467;28;20396;-61
2022/08/23 11:54:28;;;;;;;6.00;5.00;;;;;;;26.24;55.89;100825.00;5024710;28;20398;-61